Time;durP1;ratioP1;P1;durP2;ratioP2;P2;SDS_P1;SDS_P2;PMS_P1;PMS_P2;Temp;Humidity;BMP_temperature;BMP_pressure;BME280_temperature;BME280_humidity;BME280_pressure;Samples;Min_cycle;Max_cycle;Signal;HPM_P1;HPM_P2
2021/01/05 00:00:27;;;;;;;5.32;1.73;;;;;;;5.36;76.11;101596.88;4420363;32;20105;-71
2021/01/05 00:02:52;;;;;;;10.15;1.98;;;;;;;5.34;76.48;101588.09;4415407;32;20465;-73
2021/01/05 00:05:21;;;;;;;6.20;1.85;;;;;;;5.31;76.86;101574.09;4421181;32;20429;-72
2021/01/05 00:07:48;;;;;;;5.50;2.28;;;;;;;5.36;76.29;101588.50;4417522;32;20035;-73
2021/01/05 00:10:13;;;;;;;8.52;2.50;;;;;;;5.39;76.61;101584.97;4422453;32;20030;-74
2021/01/05 00:12:39;;;;;;;6.97;2.37;;;;;;;5.41;76.51;101585.38;4417731;32;20478;-74
2021/01/05 00:15:07;;;;;;;9.15;1.83;;;;;;;5.45;76.63;101585.41;4415348;32;20072;-74
2021/01/05 00:17:34;;;;;;;4.75;1.80;;;;;;;5.53;76.63;101590.66;4420114;32;20452;-72
2021/01/05 00:19:59;;;;;;;9.40;1.92;;;;;;;5.48;75.74;101593.00;4420420;32;20109;-73
2021/01/05 00:22:25;;;;;;;6.20;2.05;;;;;;;5.33;75.95;101597.66;4412942;32;20062;-72
2021/01/05 00:24:51;;;;;;;9.27;3.20;;;;;;;5.43;76.17;101596.16;4414606;32;20046;-72
2021/01/05 00:27:17;;;;;;;9.18;2.42;;;;;;;5.37;76.14;101592.91;4416522;32;20097;-73
2021/01/05 00:29:42;;;;;;;7.07;2.00;;;;;;;5.43;76.34;101596.94;4418937;32;20102;-73
2021/01/05 00:32:18;;;;;;;7.57;2.12;;;;;;;5.35;76.25;101591.69;4420205;32;20540;-74
2021/01/05 00:34:46;;;;;;;7.45;1.65;;;;;;;5.33;76.51;101583.69;4409643;32;20070;-74
2021/01/05 00:37:13;;;;;;;8.88;2.35;;;;;;;5.37;76.48;101592.13;4418167;32;20038;-73
2021/01/05 00:39:39;;;;;;;6.60;1.98;;;;;;;5.41;76.82;101592.94;4419864;32;20045;-72
2021/01/05 00:42:05;;;;;;;8.27;2.15;;;;;;;5.35;76.79;101583.31;4421266;32;20021;-75
2021/01/05 00:44:30;;;;;;;6.82;2.37;;;;;;;5.36;76.66;101590.50;4422209;32;20547;-74
2021/01/05 00:46:57;;;;;;;8.63;1.90;;;;;;;5.41;76.60;101585.38;4422155;32;20139;-72
2021/01/05 00:49:23;;;;;;;10.90;2.47;;;;;;;5.10;76.76;101571.91;4414442;32;20034;-73
2021/01/05 00:51:49;;;;;;;9.75;2.00;;;;;;;5.26;76.92;101582.81;4413669;32;20030;-74
2021/01/05 00:54:14;;;;;;;8.18;1.90;;;;;;;5.25;77.05;101576.41;4416934;32;20053;-72
2021/01/05 00:56:40;;;;;;;10.88;2.12;;;;;;;5.27;77.12;101571.28;4427313;32;20074;-74
2021/01/05 00:59:06;;;;;;;5.55;1.98;;;;;;;5.23;77.08;101578.00;4412144;32;20023;-74
2021/01/05 01:01:32;;;;;;;18.20;2.55;;;;;;;5.25;76.48;101567.25;4417775;32;20042;-73
2021/01/05 01:03:58;;;;;;;10.32;2.85;;;;;;;5.20;76.77;101565.63;4412400;32;20088;-72
2021/01/05 01:06:24;;;;;;;7.95;1.87;;;;;;;5.29;76.87;101576.47;4431756;32;20042;-72
2021/01/05 01:08:50;;;;;;;8.88;1.73;;;;;;;5.27;76.84;101576.84;4419642;32;20128;-73
2021/01/05 01:11:16;;;;;;;5.50;1.98;;;;;;;5.30;76.68;101573.28;4425305;32;20038;-72
2021/01/05 01:13:41;;;;;;;9.45;1.90;;;;;;;5.22;76.57;101576.41;4423384;32;20082;-73
2021/01/05 01:16:07;;;;;;;5.07;2.03;;;;;;;5.29;76.61;101571.69;4417146;32;20440;-73
2021/01/05 01:18:33;;;;;;;10.05;1.50;;;;;;;5.25;77.03;101579.22;4417814;32;20449;-73
2021/01/05 01:20:59;;;;;;;9.63;1.50;;;;;;;5.21;76.49;101572.00;4421557;32;20022;-72
2021/01/05 01:23:25;;;;;;;7.12;1.67;;;;;;;5.14;76.94;101575.53;4421219;32;20815;-72
2021/01/05 01:25:51;;;;;;;7.43;1.45;;;;;;;5.20;76.51;101581.56;4415831;32;20038;-72
2021/01/05 01:28:17;;;;;;;5.47;1.55;;;;;;;5.31;76.46;101577.69;4422530;32;20078;-71
2021/01/05 01:30:43;;;;;;;8.10;1.60;;;;;;;5.17;76.17;101577.53;4428364;32;20021;-72
2021/01/05 01:33:09;;;;;;;3.40;1.00;;;;;;;5.15;77.19;101565.97;4421447;32;20080;-74
2021/01/05 01:35:34;;;;;;;5.18;0.93;;;;;;;4.98;77.10;101569.37;4423437;32;20450;-74
2021/01/05 01:38:00;;;;;;;5.18;1.23;;;;;;;5.02;77.42;101563.81;4414349;32;20352;-73
2021/01/05 01:40:43;;;;;;;7.10;1.12;;;;;;;4.97;77.51;101570.53;4420298;32;20384;-74
2021/01/05 01:43:09;;;;;;;3.08;1.17;;;;;;;4.91;77.12;101566.47;4424737;32;20060;-76
2021/01/05 01:45:36;;;;;;;5.78;1.20;;;;;;;4.83;77.67;101569.56;4410458;32;20427;-75
2021/01/05 01:48:03;;;;;;;6.15;1.58;;;;;;;4.80;77.87;101559.16;4418080;32;20082;-72
2021/01/05 01:50:32;;;;;;;4.55;1.48;;;;;;;4.86;78.23;101563.22;4414783;32;20018;-75
2021/01/05 02:01:37;;;;;;;3.45;0.98;;;;;;;5.39;76.24;101554.25;3989532;32;15026454;-75
2021/01/05 02:15:18;;;;;;;5.10;0.93;;;;;;;5.40;75.63;101544.69;3993161;32;15026537;-72
2021/01/05 02:20:29;;;;;;;5.25;0.80;;;;;;;5.46;75.98;101550.75;3963231;32;15726669;-75
2021/01/05 02:28:24;;;;;;;7.43;1.00;;;;;;;5.06;76.92;101539.56;3992978;32;15023259;-72
2021/01/05 02:30:59;;;;;;;9.20;1.33;;;;;;;4.98;77.57;101549.84;4447005;32;20064;-72
2021/01/05 02:42:24;;;;;;;6.25;0.65;;;;;;;5.52;76.86;101546.38;3963912;32;15723399;-75
2021/01/05 02:48:25;;;;;;;3.17;0.80;;;;;;;5.15;77.66;101534.44;3984534;32;15024568;-71
2021/01/05 02:51:33;;;;;;;3.45;1.00;;;;;;;5.12;77.48;101529.66;4436331;32;20119;-73
2021/01/05 02:54:38;;;;;;;6.22;1.58;;;;;;;5.09;77.37;101534.00;4436883;32;20095;-72
2021/01/05 03:03:22;;;;;;;9.98;2.08;;;;;;;5.54;75.99;101525.28;3998631;32;15022178;-73
2021/01/05 03:06:08;;;;;;;3.45;1.27;;;;;;;5.54;75.99;101525.28;4440469;32;20033;-74
2021/01/05 03:08:40;;;;;;;7.50;1.80;;;;;;;5.12;77.04;101524.87;4442818;32;20025;-75
2021/01/05 03:11:15;;;;;;;4.28;1.70;;;;;;;5.11;77.06;101528.03;4447619;32;20060;-73
2021/01/05 03:21:41;;;;;;;5.15;1.67;;;;;;;5.37;76.82;101537.06;3986095;32;15023262;-73
2021/01/05 03:24:10;;;;;;;8.35;1.85;;;;;;;5.32;76.76;101529.06;4432327;32;20038;-75
2021/01/05 03:26:41;;;;;;;6.45;1.87;;;;;;;5.35;76.90;101528.31;4443443;32;20092;-74
2021/01/05 03:29:07;;;;;;;9.18;1.70;;;;;;;5.13;76.53;101531.25;4440027;32;20025;-74
2021/01/05 03:34:12;;;;;;;9.95;2.10;;;;;;;5.54;75.68;101542.03;3978246;32;15021842;-72
2021/01/05 03:36:38;;;;;;;4.43;1.62;;;;;;;5.54;75.68;101542.03;4438124;32;20041;-72
2021/01/05 03:39:05;;;;;;;4.00;1.50;;;;;;;5.15;77.01;101524.09;4437097;32;20071;-73
2021/01/05 03:41:32;;;;;;;7.40;1.70;;;;;;;5.19;77.12;101526.94;4435982;32;20124;-72
2021/01/05 03:43:58;;;;;;;2.65;1.35;;;;;;;5.26;77.16;101524.22;4445555;32;20689;-74
2021/01/05 03:46:27;;;;;;;4.37;1.52;;;;;;;5.23;77.24;101527.78;4436725;32;21713;-73
2021/01/05 03:48:53;;;;;;;1.45;0.73;;;;;;;5.16;77.20;101519.34;4434726;32;20038;-75
2021/01/05 03:51:18;;;;;;;2.80;0.98;;;;;;;5.06;77.76;101526.41;4434280;32;20464;-74
2021/01/05 03:53:44;;;;;;;5.70;1.10;;;;;;;5.04;77.51;101527.97;4438070;32;20029;-73
2021/01/05 03:56:10;;;;;;;1.40;0.70;;;;;;;5.13;77.49;101534.06;4435218;32;20075;-72
2021/01/05 03:58:35;;;;;;;2.58;0.90;;;;;;;5.08;77.39;101529.63;4436632;32;20084;-73
2021/01/05 04:01:02;;;;;;;3.60;0.98;;;;;;;5.10;77.46;101520.88;4437316;32;20059;-74
2021/01/05 04:03:28;;;;;;;3.22;0.98;;;;;;;5.10;77.66;101527.25;4438305;32;20056;-74
2021/01/05 04:05:53;;;;;;;6.40;1.23;;;;;;;5.03;77.44;101526.38;4439048;32;20033;-73
2021/01/05 04:08:19;;;;;;;9.75;1.60;;;;;;;5.08;77.85;101528.81;4435568;32;20049;-73
2021/01/05 04:10:45;;;;;;;4.55;1.62;;;;;;;4.89;78.21;101531.78;4435412;32;20038;-72
2021/01/05 04:13:10;;;;;;;3.97;1.10;;;;;;;4.96;78.86;101532.66;4433423;32;20053;-76
2021/01/05 04:15:36;;;;;;;6.25;1.48;;;;;;;4.94;79.27;101535.03;4437582;32;20107;-74
2021/01/05 04:18:03;;;;;;;4.28;1.45;;;;;;;4.79;79.72;101538.03;4433713;32;20029;-74
2021/01/05 04:20:30;;;;;;;6.40;1.62;;;;;;;4.89;80.20;101531.78;4436429;32;20067;-73
2021/01/05 04:22:56;;;;;;;2.90;1.65;;;;;;;4.99;80.32;101537.47;4430064;32;20042;-71
2021/01/05 04:25:23;;;;;;;7.03;2.22;;;;;;;4.93;80.35;101529.81;4434648;32;20073;-75
2021/01/05 04:27:50;;;;;;;4.78;2.10;;;;;;;4.89;80.52;101529.81;4433329;32;20034;-73
2021/01/05 04:30:20;;;;;;;6.30;2.45;;;;;;;4.97;80.50;101527.91;4436784;32;20108;-72
2021/01/05 04:32:46;;;;;;;8.40;2.30;;;;;;;4.98;80.46;101533.09;4429210;32;20095;-75
2021/01/05 04:35:12;;;;;;;4.12;1.87;;;;;;;4.96;80.20;101531.84;4431425;32;20112;-72
2021/01/05 04:37:38;;;;;;;5.25;1.98;;;;;;;5.06;80.43;101536.78;4445166;32;20073;-71
2021/01/05 04:40:05;;;;;;;4.90;1.90;;;;;;;5.03;80.45;101535.53;4431723;32;20033;-72
2021/01/05 04:42:35;;;;;;;3.08;1.75;;;;;;;5.00;79.74;101533.50;4435156;32;20031;-74
2021/01/05 04:50:37;;;;;;;4.85;1.62;;;;;;;5.61;78.77;101536.50;3986243;32;15022693;-71
2021/01/05 04:53:14;;;;;;;5.82;1.50;;;;;;;5.61;78.77;101536.50;4441223;32;20075;-74
2021/01/05 04:55:52;;;;;;;5.85;1.40;;;;;;;5.11;79.64;101528.84;4441984;32;20037;-73
2021/01/05 04:58:26;;;;;;;2.92;1.17;;;;;;;5.12;79.69;101524.09;4442507;32;20370;-72
2021/01/05 05:00:55;;;;;;;3.73;1.10;;;;;;;5.14;80.15;101516.13;4439306;32;20064;-73
2021/01/05 05:11:53;;;;;;;3.20;1.50;;;;;;;5.71;78.56;101521.03;3981005;32;15022552;-74
2021/01/05 05:14:36;;;;;;;4.57;1.90;;;;;;;5.71;78.56;101521.03;4435419;32;20181;-73
2021/01/05 05:20:11;;;;;;;7.87;2.45;;;;;;;5.37;79.92;101525.91;3991144;32;15023918;-75
2021/01/05 05:23:17;;;;;;;6.10;2.33;;;;;;;5.29;79.68;101515.88;4443684;32;20489;-74
2021/01/05 05:25:51;;;;;;;6.03;2.17;;;;;;;5.24;79.07;101510.66;4442661;32;20121;-72
2021/01/05 05:28:23;;;;;;;4.53;1.70;;;;;;;5.27;79.08;101515.47;4440789;32;20422;-71
2021/01/05 05:30:49;;;;;;;4.20;1.73;;;;;;;5.23;79.07;101514.63;4441591;32;20092;-72
2021/01/05 05:33:22;;;;;;;10.27;1.83;;;;;;;5.25;79.04;101522.63;4436068;32;20037;-73
2021/01/05 05:39:05;;;;;;;1.52;1.17;;;;;;;5.60;77.43;101523.75;3996968;32;15022643;-74
2021/01/05 05:47:00;;;;;;;7.45;2.78;;;;;;;5.53;77.88;101523.66;3997109;32;15022523;-72
2021/01/05 05:52:07;;;;;;;6.62;2.97;;;;;;;5.27;78.88;101529.41;3964729;32;15723513;-75
2021/01/05 05:54:34;;;;;;;5.00;3.00;;;;;;;5.18;78.79;101523.34;4436317;32;20037;-72
2021/01/05 05:57:40;;;;;;;6.35;3.17;;;;;;;5.15;78.53;101524.09;4442649;32;20033;-74
2021/01/05 06:00:28;;;;;;;8.63;3.33;;;;;;;5.22;78.79;101534.53;4433503;32;20242;-74
2021/01/05 06:02:54;;;;;;;5.20;2.70;;;;;;;5.38;78.11;101532.31;4434368;32;20065;-74
2021/01/05 06:05:26;;;;;;;4.25;2.28;;;;;;;5.38;78.07;101527.53;4438406;32;20063;-74
2021/01/05 06:07:53;;;;;;;5.12;2.55;;;;;;;5.48;78.12;101534.38;4430477;32;20126;-75
2021/01/05 06:10:19;;;;;;;10.88;2.45;;;;;;;5.46;77.85;101528.41;4432974;32;20407;-76
2021/01/05 06:12:44;;;;;;;5.62;2.00;;;;;;;5.23;77.93;101531.38;4434142;32;20029;-73
2021/01/05 06:15:10;;;;;;;4.30;2.22;;;;;;;5.32;77.91;101531.06;4437609;32;20378;-76
2021/01/05 06:17:36;;;;;;;6.72;2.00;;;;;;;5.26;78.24;101529.78;4432235;32;20065;-73
2021/01/05 06:20:03;;;;;;;7.10;2.22;;;;;;;5.28;78.70;101533.00;4434922;32;20355;-74
2021/01/05 06:22:29;;;;;;;9.35;2.00;;;;;;;5.23;79.10;101525.78;4431127;32;20018;-73
2021/01/05 06:24:54;;;;;;;7.12;2.40;;;;;;;5.19;79.20;101530.50;4427832;32;20110;-74
2021/01/05 06:27:20;;;;;;;6.70;1.80;;;;;;;5.12;78.86;101536.03;4434900;32;20048;-74
2021/01/05 06:29:46;;;;;;;5.50;1.98;;;;;;;5.17;79.64;101529.31;4435015;32;20061;-73
2021/01/05 06:32:11;;;;;;;5.97;2.17;;;;;;;4.98;79.94;101535.06;4433419;32;20018;-72
2021/01/05 06:34:37;;;;;;;5.78;1.92;;;;;;;5.00;79.80;101535.50;4443732;32;20037;-70
2021/01/05 06:37:02;;;;;;;8.23;2.05;;;;;;;4.80;79.76;101534.87;4437663;32;20057;-73
2021/01/05 06:39:28;;;;;;;5.90;2.60;;;;;;;4.80;80.05;101543.25;4433125;32;20427;-72
2021/01/05 06:41:54;;;;;;;7.95;2.85;;;;;;;4.89;80.37;101543.75;4431836;32;20022;-73
2021/01/05 06:44:19;;;;;;;7.55;2.90;;;;;;;4.97;80.18;101542.63;4434748;32;20021;-71
2021/01/05 06:46:51;;;;;;;16.10;3.25;;;;;;;5.04;80.54;101539.94;4430351;32;20022;-72
2021/01/05 06:49:17;;;;;;;10.48;3.10;;;;;;;4.93;80.81;101539.00;4439817;32;20082;-72
2021/01/05 06:51:43;;;;;;;9.02;3.03;;;;;;;4.94;80.48;101535.03;4432403;32;20068;-72
2021/01/05 06:54:08;;;;;;;9.20;3.30;;;;;;;4.99;80.54;101547.81;4439581;32;20093;-71
2021/01/05 06:56:48;;;;;;;13.15;3.08;;;;;;;4.99;80.61;101550.62;4435826;32;20073;-71
2021/01/05 06:59:14;;;;;;;7.18;2.85;;;;;;;5.10;80.08;101534.81;4430222;32;20053;-73
2021/01/05 07:01:40;;;;;;;10.02;2.90;;;;;;;5.05;79.61;101537.94;4428738;32;20385;-74
2021/01/05 07:04:05;;;;;;;10.80;3.40;;;;;;;4.99;79.59;101542.25;4426000;32;20073;-73
2021/01/05 07:06:31;;;;;;;6.40;2.87;;;;;;;5.08;80.07;101546.34;4422760;32;20095;-72
2021/01/05 07:08:57;;;;;;;8.68;2.97;;;;;;;5.20;79.97;101545.28;4423383;32;20062;-73
2021/01/05 07:11:22;;;;;;;8.05;2.47;;;;;;;5.24;79.43;101543.31;4427993;32;20494;-73
2021/01/05 07:13:48;;;;;;;8.95;2.90;;;;;;;5.23;79.07;101548.13;4422257;32;20402;-72
2021/01/05 07:16:14;;;;;;;11.12;3.00;;;;;;;5.32;79.07;101543.03;4415384;32;20064;-74
2021/01/05 07:18:39;;;;;;;8.57;3.25;;;;;;;5.33;78.90;101553.00;4426147;32;20073;-73
2021/01/05 07:21:05;;;;;;;8.15;2.78;;;;;;;5.37;79.17;101545.44;4425801;32;20064;-74
2021/01/05 07:23:31;;;;;;;7.85;2.50;;;;;;;5.39;78.74;101540.31;4426595;32;20034;-71
2021/01/05 07:25:56;;;;;;;10.65;2.83;;;;;;;5.43;78.31;101546.72;4426327;32;20030;-72
2021/01/05 07:28:22;;;;;;;4.15;1.73;;;;;;;5.44;78.33;101548.34;4413046;32;20355;-71
2021/01/05 07:30:48;;;;;;;11.73;2.22;;;;;;;5.46;78.04;101540.34;4424724;32;20104;-73
2021/01/05 07:33:13;;;;;;;7.35;1.92;;;;;;;5.45;77.11;101544.34;4420807;32;20105;-74
2021/01/05 07:35:39;;;;;;;10.63;2.10;;;;;;;5.28;77.29;101542.16;4424845;32;20069;-71
2021/01/05 07:38:05;;;;;;;7.22;1.42;;;;;;;5.33;76.70;101547.41;4418369;32;20469;-73
2021/01/05 07:40:31;;;;;;;18.45;4.28;;;;;;;5.31;76.98;101538.59;4419736;32;20027;-73
2021/01/05 07:42:57;;;;;;;4.15;1.50;;;;;;;5.37;76.72;101541.87;4425287;32;20072;-72
2021/01/05 07:45:23;;;;;;;5.62;1.05;;;;;;;5.42;76.95;101555.47;4419168;32;20045;-73
2021/01/05 07:47:50;;;;;;;9.02;1.80;;;;;;;5.41;76.60;101548.28;4423600;32;20050;-74
2021/01/05 07:50:20;;;;;;;8.77;1.92;;;;;;;5.26;76.13;101554.91;4423566;32;20636;-74
2021/01/05 07:52:46;;;;;;;6.28;1.17;;;;;;;5.22;76.20;101557.66;4421323;32;20524;-76
2021/01/05 07:57:52;;;;;;;12.73;2.20;;;;;;;5.82;75.27;101564.66;3981965;32;15023886;-74
2021/01/05 08:00:21;;;;;;;5.90;1.67;;;;;;;5.82;75.27;101564.66;4441768;32;20426;-71
2021/01/05 08:02:47;;;;;;;9.27;1.95;;;;;;;5.36;75.80;101557.00;4435610;32;20087;-73
2021/01/05 08:05:16;;;;;;;10.75;1.92;;;;;;;5.35;76.05;101567.38;4436075;32;20054;-73
2021/01/05 08:07:42;;;;;;;6.12;2.20;;;;;;;5.35;75.52;101572.16;4435473;32;20063;-73
2021/01/05 08:10:14;;;;;;;10.57;4.45;;;;;;;5.45;76.41;101574.25;4436303;32;20045;-75
2021/01/05 08:12:40;;;;;;;15.18;3.40;;;;;;;5.49;76.05;101564.72;4437326;32;20041;-72
2021/01/05 08:15:06;;;;;;;8.00;2.72;;;;;;;5.52;75.78;101572.31;4439460;32;20067;-74
2021/01/05 08:17:32;;;;;;;10.63;2.20;;;;;;;5.54;75.64;101574.72;4438835;32;20740;-73
2021/01/05 08:19:58;;;;;;;8.93;2.30;;;;;;;5.49;75.12;101569.50;4435975;32;20053;-73
2021/01/05 08:22:24;;;;;;;12.88;2.25;;;;;;;5.53;74.69;101570.34;4439922;32;20078;-74
2021/01/05 08:24:54;;;;;;;10.82;2.62;;;;;;;5.64;74.77;101574.03;4434767;32;20149;-75
2021/01/05 08:27:20;;;;;;;12.48;2.80;;;;;;;5.66;74.28;101566.88;4440671;32;20379;-75
2021/01/05 08:29:46;;;;;;;9.32;3.10;;;;;;;5.66;73.22;101580.84;4441051;32;20544;-75
2021/01/05 08:32:12;;;;;;;11.80;2.58;;;;;;;5.78;73.92;101579.75;4439598;32;20033;-76
2021/01/05 08:34:37;;;;;;;8.73;2.30;;;;;;;5.74;72.91;101585.28;4433313;32;20504;-76
2021/01/05 08:37:03;;;;;;;11.77;2.80;;;;;;;5.78;72.92;101588.94;4432545;32;20068;-74
2021/01/05 08:39:29;;;;;;;10.35;2.50;;;;;;;5.72;72.08;101579.31;4429344;32;20055;-75
2021/01/05 08:41:56;;;;;;;12.10;2.40;;;;;;;5.72;70.41;101579.31;4432426;32;20065;-76
2021/01/05 08:44:22;;;;;;;12.60;3.05;;;;;;;5.78;70.68;101593.72;4430591;32;20434;-76
2021/01/05 08:46:48;;;;;;;16.75;3.95;;;;;;;5.74;71.11;101590.09;4428154;32;20116;-75
2021/01/05 08:49:14;;;;;;;13.10;3.33;;;;;;;5.80;71.65;101596.94;4427659;32;20471;-73
2021/01/05 08:51:40;;;;;;;9.27;2.80;;;;;;;5.78;70.68;101597.31;4428821;32;20097;-73
2021/01/05 08:54:06;;;;;;;10.63;2.37;;;;;;;5.69;70.27;101596.03;4426677;32;20119;-76
2021/01/05 08:56:31;;;;;;;6.65;1.95;;;;;;;5.79;70.05;101600.88;4421518;32;20379;-74
2021/01/05 08:58:58;;;;;;;11.12;1.70;;;;;;;5.76;69.68;101610.03;4428069;32;20045;-74
2021/01/05 09:01:24;;;;;;;7.15;1.85;;;;;;;5.79;69.46;101614.84;4427141;32;20343;-73
2021/01/05 09:03:51;;;;;;;5.53;2.03;;;;;;;5.83;70.70;101616.53;4423337;32;20026;-74
2021/01/05 09:06:24;;;;;;;8.85;2.50;;;;;;;5.86;70.16;101617.75;4424989;32;20027;-75
2021/01/05 09:08:52;;;;;;;6.65;1.83;;;;;;;5.91;70.38;101622.97;4417798;32;20072;-77
2021/01/05 09:11:21;;;;;;;9.55;2.78;;;;;;;5.91;70.16;101617.41;4416590;32;20477;-74
2021/01/05 09:13:48;;;;;;;7.47;2.60;;;;;;;5.88;69.33;101621.78;4417675;32;20437;-75
2021/01/05 09:16:32;;;;;;;13.73;2.87;;;;;;;6.01;70.57;101625.06;4415700;32;20484;-76
2021/01/05 09:18:59;;;;;;;6.95;2.62;;;;;;;5.97;70.06;101622.25;4413999;32;20077;-74
2021/01/05 09:21:28;;;;;;;7.90;2.50;;;;;;;4.54;70.04;101417.88;4414997;32;20513;-74
2021/01/05 09:24:00;;;;;;;5.93;2.15;;;;;;;5.88;69.89;101629.34;4416376;32;20074;-77
2021/01/05 09:26:31;;;;;;;12.18;2.72;;;;;;;5.99;70.18;101625.44;4411731;32;20738;-73
2021/01/05 09:28:57;;;;;;;7.90;2.85;;;;;;;6.11;70.41;101627.16;4407828;32;20434;-73
2021/01/05 09:31:23;;;;;;;9.25;2.60;;;;;;;6.11;70.49;101622.34;4413808;32;20081;-73
2021/01/05 09:33:49;;;;;;;7.85;2.35;;;;;;;6.16;70.56;101628.78;4415245;32;20431;-74
2021/01/05 09:36:16;;;;;;;12.27;2.80;;;;;;;6.14;70.11;101616.00;4418006;32;21563;-74
2021/01/05 09:38:44;;;;;;;9.85;2.42;;;;;;;6.15;70.05;101608.41;4420072;32;20441;-72
2021/01/05 09:41:20;;;;;;;11.55;2.70;;;;;;;6.25;70.89;101612.47;4414701;32;20369;-74
2021/01/05 09:43:46;;;;;;;8.65;2.62;;;;;;;6.24;70.28;101624.84;4415310;32;20041;-72
2021/01/05 09:46:12;;;;;;;14.00;2.60;;;;;;;6.32;70.84;101616.13;4419015;32;20026;-74
2021/01/05 09:48:38;;;;;;;8.35;2.17;;;;;;;6.34;70.03;101619.34;4420822;32;20076;-75
2021/01/05 09:51:04;;;;;;;12.13;2.25;;;;;;;6.21;70.04;101615.25;4413846;32;20495;-78
2021/01/05 09:53:30;;;;;;;6.72;2.67;;;;;;;6.32;69.90;101618.12;4416591;32;20466;-75
2021/01/05 09:55:55;;;;;;;7.22;2.55;;;;;;;6.26;69.92;101612.06;4411388;32;20374;-74
2021/01/05 09:58:21;;;;;;;6.80;2.20;;;;;;;6.35;70.13;101617.34;4417243;32;20478;-73
2021/01/05 10:00:47;;;;;;;9.27;2.22;;;;;;;6.37;70.45;101612.16;4417447;32;20038;-74
2021/01/05 10:03:13;;;;;;;7.53;2.20;;;;;;;6.48;70.46;101624.22;4415208;32;20161;-77
2021/01/05 10:05:38;;;;;;;9.55;2.55;;;;;;;6.52;69.76;101620.25;4419302;32;20030;-77
2021/01/05 10:08:04;;;;;;;9.40;2.22;;;;;;;6.56;69.44;101625.88;4414317;32;20037;-74
2021/01/05 10:10:30;;;;;;;6.35;2.40;;;;;;;6.60;69.50;101629.50;4413576;32;20721;-74
2021/01/05 10:12:56;;;;;;;6.05;2.60;;;;;;;6.64;69.58;101622.75;4414486;32;20132;-75
2021/01/05 10:15:24;;;;;;;5.30;2.05;;;;;;;6.70;69.45;101626.78;4416727;32;20498;-77
2021/01/05 10:17:50;;;;;;;7.12;2.33;;;;;;;6.77;68.56;101632.41;4416258;32;20056;-74
2021/01/05 10:20:19;;;;;;;8.40;2.60;;;;;;;6.74;68.60;101635.16;4417849;32;20050;-75
2021/01/05 10:22:45;;;;;;;7.25;2.00;;;;;;;6.75;67.98;101636.78;4416034;32;20081;-77
2021/01/05 10:25:12;;;;;;;13.32;3.58;;;;;;;6.68;68.01;101640.34;4411123;32;20087;-76
2021/01/05 10:27:38;;;;;;;7.80;2.47;;;;;;;6.68;68.65;101633.94;4416575;32;20442;-74
2021/01/05 10:30:06;;;;;;;6.22;2.40;;;;;;;6.70;67.73;101632.38;4416085;32;20385;-78
2021/01/05 10:32:32;;;;;;;6.12;1.95;;;;;;;6.70;68.20;101626.78;4415003;32;20143;-77
2021/01/05 10:34:58;;;;;;;8.25;2.22;;;;;;;6.71;67.37;101633.16;4415052;32;20042;-73
2021/01/05 10:37:23;;;;;;;6.40;2.37;;;;;;;6.43;68.01;101641.34;4416125;32;20065;-75
2021/01/05 10:39:49;;;;;;;6.53;1.92;;;;;;;6.49;67.79;101634.22;4414516;32;20034;-76
2021/01/05 10:42:15;;;;;;;7.82;2.50;;;;;;;6.55;68.92;101641.84;4404680;32;20119;-75
2021/01/05 10:44:40;;;;;;;13.25;2.53;;;;;;;6.64;68.74;101642.31;4416914;32;20038;-76
2021/01/05 10:47:07;;;;;;;9.20;2.22;;;;;;;6.74;68.47;101641.56;4416411;32;20034;-76
2021/01/05 10:49:33;;;;;;;6.22;2.53;;;;;;;6.77;67.64;101643.59;4417579;32;20064;-79
2021/01/05 10:52:02;;;;;;;8.27;2.87;;;;;;;6.70;68.27;101646.34;4416381;32;20038;-77
2021/01/05 10:54:29;;;;;;;8.10;2.78;;;;;;;6.74;68.34;101638.78;4412497;32;20057;-77
2021/01/05 10:59:34;;;;;;;11.68;2.65;;;;;;;7.34;67.18;101636.25;3992917;32;15022144;-80
2021/01/05 11:02:02;;;;;;;12.70;4.55;;;;;;;7.34;67.18;101636.25;4444381;32;20037;-81
2021/01/05 11:04:30;;;;;;;11.25;2.85;;;;;;;7.12;68.17;101634.56;4441281;32;20492;-78
2021/01/05 11:06:59;;;;;;;9.25;2.45;;;;;;;7.18;67.53;101630.97;4436807;32;20107;-78
2021/01/05 11:09:26;;;;;;;11.45;2.90;;;;;;;7.33;66.56;101627.03;4438096;32;20042;-75
2021/01/05 11:12:00;;;;;;;7.70;2.22;;;;;;;7.51;67.10;101630.69;4433071;32;20073;-78
2021/01/05 11:14:27;;;;;;;9.82;2.90;;;;;;;7.51;66.81;101632.69;4443327;32;20495;-78
2021/01/05 11:16:53;;;;;;;11.55;2.53;;;;;;;7.69;66.21;101628.75;4437418;32;20064;-77
2021/01/05 11:19:19;;;;;;;7.57;2.60;;;;;;;7.73;65.75;101625.94;4440584;32;20080;-74
2021/01/05 11:22:09;;;;;;;6.10;2.72;;;;;;;7.68;65.80;101634.75;4438059;32;20097;-77
2021/01/05 11:24:37;;;;;;;6.50;2.53;;;;;;;7.64;64.97;101622.75;4437751;32;20069;-76
2021/01/05 11:27:05;;;;;;;10.07;2.65;;;;;;;7.47;66.16;101615.09;4434739;32;20063;-74
2021/01/05 11:29:31;;;;;;;11.55;2.72;;;;;;;7.35;66.51;101613.47;4441474;32;20030;-75
2021/01/05 11:32:00;;;;;;;7.32;2.53;;;;;;;7.46;66.17;101608.66;4436237;32;20177;-74
2021/01/05 11:34:26;;;;;;;9.48;2.33;;;;;;;7.50;66.59;101615.09;4426795;32;20077;-75
2021/01/05 11:36:52;;;;;;;12.27;3.55;;;;;;;7.37;66.84;101602.66;4421964;32;20045;-77
2021/01/05 11:39:19;;;;;;;9.68;3.40;;;;;;;7.24;67.33;101600.63;4422309;32;20389;-76
2021/01/05 11:41:45;;;;;;;10.35;2.65;;;;;;;7.39;67.47;101599.44;4416387;32;20502;-77
2021/01/05 11:44:14;;;;;;;10.98;2.72;;;;;;;7.40;66.92;101599.06;4421121;32;20375;-73
2021/01/05 11:46:40;;;;;;;9.82;2.78;;;;;;;7.51;66.86;101593.47;4427904;32;20049;-74
2021/01/05 11:49:06;;;;;;;10.90;2.95;;;;;;;7.53;66.83;101588.28;4420468;32;20840;-77
2021/01/05 11:51:35;;;;;;;14.45;3.15;;;;;;;7.61;66.84;101593.50;4423242;32;20045;-76
2021/01/05 11:54:01;;;;;;;7.03;2.65;;;;;;;7.61;65.55;101587.91;4423640;32;20687;-75
2021/01/05 11:56:29;;;;;;;9.27;2.78;;;;;;;7.66;66.18;101595.91;4423712;32;20361;-77
2021/01/05 11:58:56;;;;;;;11.25;2.83;;;;;;;7.81;66.32;101577.13;4418831;32;20446;-77
2021/01/05 12:01:23;;;;;;;14.75;3.47;;;;;;;7.88;66.05;101582.72;4421979;32;20040;-77
2021/01/05 12:03:49;;;;;;;9.45;2.92;;;;;;;7.74;65.51;101574.31;4422015;32;20553;-79
2021/01/05 12:06:20;;;;;;;7.53;3.03;;;;;;;7.80;65.77;101575.53;4423395;32;20078;-74
2021/01/05 12:08:47;;;;;;;7.47;2.58;;;;;;;7.88;66.07;101574.31;4421008;32;20482;-75
2021/01/05 12:13:54;;;;;;;12.07;3.42;;;;;;;8.11;65.70;101578.31;3989450;32;15021653;-74
2021/01/05 12:16:38;;;;;;;15.43;2.75;;;;;;;8.11;65.70;101578.31;4433026;32;20128;-74
2021/01/05 12:19:07;;;;;;;8.68;2.70;;;;;;;7.58;66.36;101565.50;4434516;32;20041;-76
2021/01/05 12:21:36;;;;;;;12.10;2.87;;;;;;;7.50;67.00;101567.50;4435197;32;20034;-77
2021/01/05 12:24:04;;;;;;;11.57;3.10;;;;;;;7.63;66.40;101567.91;4434895;32;20101;-77
2021/01/05 12:29:18;;;;;;;8.27;2.35;;;;;;;8.91;64.24;101570.13;4005369;31;15014791;-77
2021/01/05 12:31:47;;;;;;;4.85;1.95;;;;;;;8.91;64.24;101570.13;4457388;32;20041;-75
2021/01/05 12:34:16;;;;;;;9.45;2.47;;;;;;;8.70;63.33;101559.78;4450276;32;20401;-75
2021/01/05 12:36:43;;;;;;;9.27;2.58;;;;;;;8.62;62.81;101558.22;4432245;32;20475;-76
2021/01/05 12:39:14;;;;;;;10.40;2.83;;;;;;;8.56;62.84;101553.44;4437606;32;20454;-75
2021/01/05 12:41:40;;;;;;;8.68;2.20;;;;;;;8.61;62.30;101548.19;4441976;32;20408;-74
2021/01/05 12:44:07;;;;;;;10.27;2.20;;;;;;;8.79;61.81;101554.56;4442237;32;20114;-77
2021/01/05 12:46:37;;;;;;;7.00;2.20;;;;;;;8.69;61.44;101546.16;4443030;32;20371;-76
2021/01/05 12:49:05;;;;;;;8.65;2.42;;;;;;;8.60;61.08;101538.19;4439388;32;20049;-76
2021/01/05 12:51:33;;;;;;;8.75;2.12;;;;;;;8.61;62.16;101553.81;4440159;32;20025;-77
2021/01/05 12:53:59;;;;;;;9.50;2.80;;;;;;;8.65;61.81;101539.78;4440096;32;20060;-78
2021/01/05 12:56:26;;;;;;;7.47;2.12;;;;;;;8.88;61.29;101540.88;4442882;32;20033;-75
2021/01/05 12:58:52;;;;;;;7.07;2.12;;;;;;;9.17;61.35;101533.09;4440533;32;20041;-75
2021/01/05 13:01:19;;;;;;;7.65;2.03;;;;;;;9.33;59.88;101536.22;4440936;32;20117;-76
2021/01/05 13:03:46;;;;;;;5.65;2.00;;;;;;;9.51;59.53;101534.87;4442923;32;20029;-76
2021/01/05 13:06:14;;;;;;;10.27;2.08;;;;;;;9.61;58.56;101533.22;4437269;32;20458;-76
2021/01/05 13:08:41;;;;;;;5.12;2.05;;;;;;;9.86;58.18;101522.56;4438219;32;20077;-75